sensor_id;sensor_type;location;lat;lon;timestamp;P1;durP1;ratioP1;P2;durP2;ratioP2
24419;SDS011;12599;52.426;13.330;2022-08-19T00:01:40;14.80;;;13.20;;
24419;SDS011;12599;52.426;13.330;2022-08-19T00:04:08;13.70;;;12.30;;
24419;SDS011;12599;52.426;13.330;2022-08-19T00:06:35;16.03;;;12.90;;
24419;SDS011;12599;52.426;13.330;2022-08-19T00:09:03;15.77;;;13.03;;
24419;SDS011;12599;52.426;13.330;2022-08-19T00:11:30;14.20;;;12.73;;
24419;SDS011;12599;52.426;13.330;2022-08-19T00:13:56;15.73;;;13.67;;
24419;SDS011;12599;52.426;13.330;2022-08-19T00:16:22;16.17;;;13.67;;
24419;SDS011;12599;52.426;13.330;2022-08-19T00:18:49;14.67;;;13.17;;
24419;SDS011;12599;52.426;13.330;2022-08-19T00:21:15;16.70;;;14.33;;
24419;SDS011;12599;52.426;13.330;2022-08-19T00:23:41;15.80;;;14.10;;
24419;SDS011;12599;52.426;13.330;2022-08-19T00:26:07;16.73;;;14.90;;
24419;SDS011;12599;52.426;13.330;2022-08-19T00:28:35;17.00;;;15.20;;
24419;SDS011;12599;52.426;13.330;2022-08-19T00:31:01;17.17;;;15.37;;
24419;SDS011;12599;52.426;13.330;2022-08-19T00:33:29;19.43;;;17.20;;
24419;SDS011;12599;52.426;13.330;2022-08-19T00:35:58;17.33;;;15.57;;
24419;SDS011;12599;52.426;13.330;2022-08-19T00:38:25;18.70;;;16.83;;
24419;SDS011;12599;52.426;13.330;2022-08-19T00:40:51;19.20;;;17.23;;
24419;SDS011;12599;52.426;13.330;2022-08-19T00:43:21;20.83;;;18.73;;
24419;SDS011;12599;52.426;13.330;2022-08-19T00:45:48;21.30;;;18.23;;
24419;SDS011;12599;52.426;13.330;2022-08-19T00:48:15;21.27;;;19.17;;
24419;SDS011;12599;52.426;13.330;2022-08-19T00:50:41;21.13;;;18.67;;
24419;SDS011;12599;52.426;13.330;2022-08-19T00:53:09;19.27;;;17.30;;
24419;SDS011;12599;52.426;13.330;2022-08-19T00:55:40;22.03;;;19.43;;
24419;SDS011;12599;52.426;13.330;2022-08-19T00:58:10;22.47;;;20.20;;
24419;SDS011;12599;52.426;13.330;2022-08-19T01:00:40;23.60;;;21.17;;
24419;SDS011;12599;52.426;13.330;2022-08-19T01:03:09;20.60;;;18.70;;
24419;SDS011;12599;52.426;13.330;2022-08-19T01:05:39;22.20;;;20.00;;
24419;SDS011;12599;52.426;13.330;2022-08-19T01:08:06;21.10;;;19.10;;
24419;SDS011;12599;52.426;13.330;2022-08-19T01:10:33;18.90;;;17.00;;
24419;SDS011;12599;52.426;13.330;2022-08-19T01:13:04;18.47;;;16.57;;
24419;SDS011;12599;52.426;13.330;2022-08-19T01:15:31;19.67;;;17.67;;
24419;SDS011;12599;52.426;13.330;2022-08-19T01:18:17;18.67;;;16.67;;
24419;SDS011;12599;52.426;13.330;2022-08-19T01:20:45;17.80;;;16.00;;
24419;SDS011;12599;52.426;13.330;2022-08-19T01:23:11;18.37;;;16.43;;
24419;SDS011;12599;52.426;13.330;2022-08-19T01:25:42;18.00;;;16.10;;
24419;SDS011;12599;52.426;13.330;2022-08-19T01:28:15;18.47;;;16.57;;
24419;SDS011;12599;52.426;13.330;2022-08-19T01:30:43;17.87;;;16.07;;
24419;SDS011;12599;52.426;13.330;2022-08-19T01:33:09;17.10;;;15.40;;
24419;SDS011;12599;52.426;13.330;2022-08-19T01:35:35;17.93;;;16.03;;
24419;SDS011;12599;52.426;13.330;2022-08-19T01:38:03;17.00;;;15.20;;
24419;SDS011;12599;52.426;13.330;2022-08-19T01:40:32;20.80;;;15.67;;
24419;SDS011;12599;52.426;13.330;2022-08-19T01:43:00;24.60;;;18.87;;
24419;SDS011;12599;52.426;13.330;2022-08-19T01:45:27;23.70;;;21.07;;
24419;SDS011;12599;52.426;13.330;2022-08-19T01:47:55;25.30;;;22.57;;
24419;SDS011;12599;52.426;13.330;2022-08-19T01:50:21;38.30;;;25.17;;
24419;SDS011;12599;52.426;13.330;2022-08-19T01:52:47;34.13;;;27.17;;
24419;SDS011;12599;52.426;13.330;2022-08-19T01:55:14;26.03;;;22.67;;
24419;SDS011;12599;52.426;13.330;2022-08-19T01:57:44;25.87;;;23.07;;
24419;SDS011;12599;52.426;13.330;2022-08-19T02:00:13;24.60;;;21.43;;
24419;SDS011;12599;52.426;13.330;2022-08-19T02:02:41;24.77;;;21.40;;
24419;SDS011;12599;52.426;13.330;2022-08-19T02:05:07;25.93;;;23.23;;
24419;SDS011;12599;52.426;13.330;2022-08-19T02:07:36;26.23;;;22.27;;
24419;SDS011;12599;52.426;13.330;2022-08-19T02:10:07;28.37;;;25.57;;
24419;SDS011;12599;52.426;13.330;2022-08-19T02:12:39;28.00;;;24.53;;
24419;SDS011;12599;52.426;13.330;2022-08-19T02:15:05;29.40;;;26.30;;
24419;SDS011;12599;52.426;13.330;2022-08-19T02:17:32;31.30;;;27.67;;
24419;SDS011;12599;52.426;13.330;2022-08-19T02:19:58;32.60;;;28.83;;
24419;SDS011;12599;52.426;13.330;2022-08-19T02:22:24;30.93;;;27.70;;
24419;SDS011;12599;52.426;13.330;2022-08-19T02:24:50;30.87;;;27.67;;
24419;SDS011;12599;52.426;13.330;2022-08-19T02:27:20;31.40;;;28.00;;
24419;SDS011;12599;52.426;13.330;2022-08-19T02:29:47;29.43;;;26.30;;
24419;SDS011;12599;52.426;13.330;2022-08-19T02:32:14;31.73;;;28.33;;
24419;SDS011;12599;52.426;13.330;2022-08-19T02:34:40;31.07;;;27.73;;
24419;SDS011;12599;52.426;13.330;2022-08-19T02:37:06;28.73;;;25.77;;
24419;SDS011;12599;52.426;13.330;2022-08-19T02:39:51;27.23;;;24.43;;
24419;SDS011;12599;52.426;13.330;2022-08-19T02:42:17;26.90;;;24.00;;
24419;SDS011;12599;52.426;13.330;2022-08-19T02:44:43;25.90;;;23.37;;
24419;SDS011;12599;52.426;13.330;2022-08-19T02:47:09;29.90;;;26.63;;
24419;SDS011;12599;52.426;13.330;2022-08-19T02:49:35;26.60;;;23.90;;
24419;SDS011;12599;52.426;13.330;2022-08-19T02:52:00;27.47;;;24.67;;
24419;SDS011;12599;52.426;13.330;2022-08-19T02:54:26;27.73;;;24.97;;
24419;SDS011;12599;52.426;13.330;2022-08-19T02:56:53;26.27;;;23.57;;
24419;SDS011;12599;52.426;13.330;2022-08-19T02:59:18;24.53;;;22.03;;
24419;SDS011;12599;52.426;13.330;2022-08-19T03:01:44;27.00;;;24.23;;
24419;SDS011;12599;52.426;13.330;2022-08-19T03:04:11;25.60;;;22.90;;
24419;SDS011;12599;52.426;13.330;2022-08-19T03:06:39;26.33;;;23.73;;
24419;SDS011;12599;52.426;13.330;2022-08-19T03:09:07;25.57;;;22.83;;
24419;SDS011;12599;52.426;13.330;2022-08-19T03:11:34;25.77;;;23.10;;
24419;SDS011;12599;52.426;13.330;2022-08-19T03:14:00;22.70;;;20.10;;
24419;SDS011;12599;52.426;13.330;2022-08-19T03:16:27;26.27;;;23.00;;
24419;SDS011;12599;52.426;13.330;2022-08-19T03:18:55;25.37;;;22.80;;
24419;SDS011;12599;52.426;13.330;2022-08-19T03:21:25;24.80;;;21.67;;
24419;SDS011;12599;52.426;13.330;2022-08-19T03:23:55;25.83;;;23.13;;
24419;SDS011;12599;52.426;13.330;2022-08-19T03:26:22;27.07;;;24.17;;
24419;SDS011;12599;52.426;13.330;2022-08-19T03:28:48;28.97;;;25.07;;
24419;SDS011;12599;52.426;13.330;2022-08-19T03:31:15;27.03;;;24.30;;
24419;SDS011;12599;52.426;13.330;2022-08-19T03:33:47;25.73;;;23.03;;
24419;SDS011;12599;52.426;13.330;2022-08-19T03:36:15;25.43;;;22.73;;
24419;SDS011;12599;52.426;13.330;2022-08-19T03:38:47;25.93;;;23.23;;
24419;SDS011;12599;52.426;13.330;2022-08-19T03:41:17;25.43;;;22.93;;
24419;SDS011;12599;52.426;13.330;2022-08-19T03:43:44;26.87;;;22.87;;
24419;SDS011;12599;52.426;13.330;2022-08-19T03:46:15;24.10;;;21.70;;
24419;SDS011;12599;52.426;13.330;2022-08-19T03:48:45;23.87;;;21.47;;
24419;SDS011;12599;52.426;13.330;2022-08-19T03:51:16;21.73;;;19.53;;
24419;SDS011;12599;52.426;13.330;2022-08-19T03:53:44;22.93;;;20.57;;
24419;SDS011;12599;52.426;13.330;2022-08-19T03:56:11;23.70;;;21.27;;
24419;SDS011;12599;52.426;13.330;2022-08-19T03:58:37;23.70;;;21.40;;
24419;SDS011;12599;52.426;13.330;2022-08-19T04:01:07;22.47;;;20.27;;
24419;SDS011;12599;52.426;13.330;2022-08-19T04:03:34;23.80;;;21.40;;
24419;SDS011;12599;52.426;13.330;2022-08-19T04:06:23;23.63;;;21.33;;
24419;SDS011;12599;52.426;13.330;2022-08-19T04:08:55;24.30;;;21.80;;
24419;SDS011;12599;52.426;13.330;2022-08-19T04:11:26;24.23;;;21.63;;
24419;SDS011;12599;52.426;13.330;2022-08-19T04:13:58;23.23;;;20.73;;
24419;SDS011;12599;52.426;13.330;2022-08-19T04:16:25;22.03;;;19.73;;
24419;SDS011;12599;52.426;13.330;2022-08-19T04:18:55;22.57;;;20.27;;
24419;SDS011;12599;52.426;13.330;2022-08-19T04:21:25;22.70;;;20.47;;
24419;SDS011;12599;52.426;13.330;2022-08-19T04:23:52;21.53;;;19.33;;
24419;SDS011;12599;52.426;13.330;2022-08-19T04:26:20;21.30;;;19.10;;
24419;SDS011;12599;52.426;13.330;2022-08-19T04:28:47;22.93;;;20.73;;
24419;SDS011;12599;52.426;13.330;2022-08-19T04:31:24;21.17;;;18.83;;
24419;SDS011;12599;52.426;13.330;2022-08-19T04:33:52;20.87;;;18.80;;
24419;SDS011;12599;52.426;13.330;2022-08-19T04:36:20;19.50;;;17.43;;
24419;SDS011;12599;52.426;13.330;2022-08-19T04:38:48;20.10;;;18.03;;
24419;SDS011;12599;52.426;13.330;2022-08-19T04:41:15;20.43;;;18.40;;
24419;SDS011;12599;52.426;13.330;2022-08-19T04:44:00;21.73;;;19.53;;
24419;SDS011;12599;52.426;13.330;2022-08-19T04:46:27;20.40;;;18.40;;
24419;SDS011;12599;52.426;13.330;2022-08-19T04:48:55;20.43;;;18.33;;
24419;SDS011;12599;52.426;13.330;2022-08-19T04:51:21;21.03;;;18.87;;
24419;SDS011;12599;52.426;13.330;2022-08-19T04:53:47;19.27;;;17.43;;
24419;SDS011;12599;52.426;13.330;2022-08-19T04:56:14;19.83;;;17.80;;
24419;SDS011;12599;52.426;13.330;2022-08-19T04:58:43;19.60;;;17.53;;
24419;SDS011;12599;52.426;13.330;2022-08-19T05:01:13;21.23;;;19.23;;
24419;SDS011;12599;52.426;13.330;2022-08-19T05:03:41;19.17;;;17.27;;
24419;SDS011;12599;52.426;13.330;2022-08-19T05:06:09;18.30;;;16.50;;
24419;SDS011;12599;52.426;13.330;2022-08-19T05:08:37;17.80;;;15.93;;
24419;SDS011;12599;52.426;13.330;2022-08-19T05:11:08;19.43;;;17.43;;
24419;SDS011;12599;52.426;13.330;2022-08-19T05:13:36;21.17;;;16.93;;
24419;SDS011;12599;52.426;13.330;2022-08-19T05:16:01;20.83;;;18.60;;
24419;SDS011;12599;52.426;13.330;2022-08-19T05:18:27;19.87;;;17.90;;
24419;SDS011;12599;52.426;13.330;2022-08-19T05:21:12;19.83;;;17.80;;
24419;SDS011;12599;52.426;13.330;2022-08-19T05:23:59;17.70;;;15.90;;
24419;SDS011;12599;52.426;13.330;2022-08-19T05:26:25;18.50;;;16.60;;
24419;SDS011;12599;52.426;13.330;2022-08-19T05:28:51;17.90;;;16.00;;
24419;SDS011;12599;52.426;13.330;2022-08-19T05:31:18;19.13;;;17.10;;
24419;SDS011;12599;52.426;13.330;2022-08-19T05:33:44;18.17;;;15.20;;
24419;SDS011;12599;52.426;13.330;2022-08-19T05:36:09;18.30;;;16.50;;
24419;SDS011;12599;52.426;13.330;2022-08-19T05:38:35;16.57;;;14.87;;
24419;SDS011;12599;52.426;13.330;2022-08-19T05:41:05;17.83;;;15.67;;
24419;SDS011;12599;52.426;13.330;2022-08-19T05:43:35;17.13;;;15.30;;
24419;SDS011;12599;52.426;13.330;2022-08-19T05:46:01;19.03;;;16.17;;
24419;SDS011;12599;52.426;13.330;2022-08-19T05:48:27;17.77;;;15.93;;
24419;SDS011;12599;52.426;13.330;2022-08-19T05:50:53;17.83;;;16.13;;
24419;SDS011;12599;52.426;13.330;2022-08-19T05:53:18;17.30;;;15.43;;
24419;SDS011;12599;52.426;13.330;2022-08-19T05:55:44;16.70;;;15.00;;
24419;SDS011;12599;52.426;13.330;2022-08-19T05:58:09;16.80;;;14.47;;
24419;SDS011;12599;52.426;13.330;2022-08-19T06:00:36;16.43;;;14.77;;
24419;SDS011;12599;52.426;13.330;2022-08-19T06:03:02;16.27;;;14.57;;
24419;SDS011;12599;52.426;13.330;2022-08-19T06:05:29;16.90;;;15.10;;
24419;SDS011;12599;52.426;13.330;2022-08-19T06:07:55;18.57;;;14.20;;
24419;SDS011;12599;52.426;13.330;2022-08-19T06:10:21;16.13;;;14.53;;
24419;SDS011;12599;52.426;13.330;2022-08-19T06:12:47;17.63;;;15.73;;
24419;SDS011;12599;52.426;13.330;2022-08-19T06:15:13;16.93;;;14.70;;
24419;SDS011;12599;52.426;13.330;2022-08-19T06:17:40;16.93;;;14.50;;
24419;SDS011;12599;52.426;13.330;2022-08-19T06:20:09;18.03;;;15.53;;
24419;SDS011;12599;52.426;13.330;2022-08-19T06:22:42;17.37;;;14.57;;
24419;SDS011;12599;52.426;13.330;2022-08-19T06:25:10;18.47;;;14.73;;
24419;SDS011;12599;52.426;13.330;2022-08-19T06:27:38;15.50;;;13.87;;
24419;SDS011;12599;52.426;13.330;2022-08-19T06:30:04;16.77;;;14.90;;
24419;SDS011;12599;52.426;13.330;2022-08-19T06:32:30;15.07;;;13.57;;
24419;SDS011;12599;52.426;13.330;2022-08-19T06:34:56;16.30;;;14.60;;
24419;SDS011;12599;52.426;13.330;2022-08-19T06:37:21;18.40;;;14.20;;
24419;SDS011;12599;52.426;13.330;2022-08-19T06:39:47;17.90;;;13.87;;
24419;SDS011;12599;52.426;13.330;2022-08-19T06:42:13;16.27;;;13.70;;
24419;SDS011;12599;52.426;13.330;2022-08-19T06:44:42;17.63;;;13.87;;
24419;SDS011;12599;52.426;13.330;2022-08-19T06:47:20;17.43;;;13.93;;
24419;SDS011;12599;52.426;13.330;2022-08-19T06:49:46;15.80;;;13.87;;
24419;SDS011;12599;52.426;13.330;2022-08-19T06:52:12;15.30;;;13.70;;
24419;SDS011;12599;52.426;13.330;2022-08-19T06:54:40;16.77;;;14.60;;
24419;SDS011;12599;52.426;13.330;2022-08-19T06:57:09;17.33;;;15.03;;
24419;SDS011;12599;52.426;13.330;2022-08-19T06:59:39;16.37;;;13.50;;
24419;SDS011;12599;52.426;13.330;2022-08-19T07:02:05;16.53;;;14.93;;
24419;SDS011;12599;52.426;13.330;2022-08-19T07:04:31;16.40;;;14.70;;
24419;SDS011;12599;52.426;13.330;2022-08-19T07:07:04;15.83;;;14.23;;
24419;SDS011;12599;52.426;13.330;2022-08-19T07:09:33;15.20;;;13.60;;
24419;SDS011;12599;52.426;13.330;2022-08-19T07:12:02;15.43;;;13.20;;
24419;SDS011;12599;52.426;13.330;2022-08-19T07:14:28;16.10;;;14.33;;
24419;SDS011;12599;52.426;13.330;2022-08-19T07:16:55;15.60;;;13.90;;
24419;SDS011;12599;52.426;13.330;2022-08-19T07:19:22;15.70;;;14.10;;
24419;SDS011;12599;52.426;13.330;2022-08-19T07:21:53;15.53;;;13.80;;
24419;SDS011;12599;52.426;13.330;2022-08-19T07:24:20;14.87;;;12.90;;
24419;SDS011;12599;52.426;13.330;2022-08-19T07:26:48;17.40;;;13.67;;
24419;SDS011;12599;52.426;13.330;2022-08-19T07:29:19;16.53;;;14.77;;
24419;SDS011;12599;52.426;13.330;2022-08-19T07:31:47;16.93;;;15.13;;
24419;SDS011;12599;52.426;13.330;2022-08-19T07:34:17;15.73;;;14.03;;
24419;SDS011;12599;52.426;13.330;2022-08-19T07:36:43;16.17;;;14.57;;
24419;SDS011;12599;52.426;13.330;2022-08-19T07:39:11;17.80;;;15.07;;
24419;SDS011;12599;52.426;13.330;2022-08-19T07:41:40;16.27;;;14.07;;
24419;SDS011;12599;52.426;13.330;2022-08-19T07:44:06;17.77;;;15.83;;
24419;SDS011;12599;52.426;13.330;2022-08-19T07:46:33;16.80;;;15.10;;
24419;SDS011;12599;52.426;13.330;2022-08-19T07:49:00;15.93;;;14.23;;
24419;SDS011;12599;52.426;13.330;2022-08-19T07:51:26;17.07;;;15.27;;
24419;SDS011;12599;52.426;13.330;2022-08-19T07:53:53;18.90;;;14.27;;
24419;SDS011;12599;52.426;13.330;2022-08-19T07:56:19;16.73;;;14.97;;
24419;SDS011;12599;52.426;13.330;2022-08-19T07:58:46;17.13;;;15.37;;
24419;SDS011;12599;52.426;13.330;2022-08-19T08:01:15;18.13;;;16.23;;
24419;SDS011;12599;52.426;13.330;2022-08-19T08:03:43;17.93;;;15.37;;
24419;SDS011;12599;52.426;13.330;2022-08-19T08:06:27;16.97;;;15.17;;
24419;SDS011;12599;52.426;13.330;2022-08-19T08:09:12;16.40;;;14.70;;
24419;SDS011;12599;52.426;13.330;2022-08-19T08:11:55;16.93;;;15.00;;
24419;SDS011;12599;52.426;13.330;2022-08-19T08:17:00;16.37;;;14.70;;
24419;SDS011;12599;52.426;13.330;2022-08-19T08:19:27;17.13;;;15.33;;
24419;SDS011;12599;52.426;13.330;2022-08-19T08:21:55;18.87;;;16.90;;
24419;SDS011;12599;52.426;13.330;2022-08-19T08:24:22;18.77;;;16.97;;
24419;SDS011;12599;52.426;13.330;2022-08-19T08:26:49;18.87;;;16.93;;
24419;SDS011;12599;52.426;13.330;2022-08-19T08:29:14;18.57;;;16.73;;
24419;SDS011;12599;52.426;13.330;2022-08-19T08:31:41;19.27;;;17.27;;
24419;SDS011;12599;52.426;13.330;2022-08-19T08:34:09;20.13;;;18.03;;
24419;SDS011;12599;52.426;13.330;2022-08-19T08:36:38;19.43;;;17.43;;
24419;SDS011;12599;52.426;13.330;2022-08-19T08:39:07;20.20;;;18.20;;
24419;SDS011;12599;52.426;13.330;2022-08-19T08:41:40;20.30;;;18.23;;
24419;SDS011;12599;52.426;13.330;2022-08-19T08:47:02;20.83;;;18.73;;
24419;SDS011;12599;52.426;13.330;2022-08-19T08:49:46;21.07;;;18.50;;
24419;SDS011;12599;52.426;13.330;2022-08-19T08:52:24;20.10;;;17.97;;
24419;SDS011;12599;52.426;13.330;2022-08-19T08:54:53;21.83;;;19.70;;
24419;SDS011;12599;52.426;13.330;2022-08-19T08:57:32;21.10;;;18.90;;
24419;SDS011;12599;52.426;13.330;2022-08-19T09:00:05;20.43;;;17.93;;
24419;SDS011;12599;52.426;13.330;2022-08-19T09:02:34;21.90;;;19.80;;
24419;SDS011;12599;52.426;13.330;2022-08-19T09:04:59;20.77;;;18.43;;
24419;SDS011;12599;52.426;13.330;2022-08-19T09:15:36;19.63;;;17.63;;
24419;SDS011;12599;52.426;13.330;2022-08-19T09:18:23;20.77;;;18.77;;
24419;SDS011;12599;52.426;13.330;2022-08-19T09:20:49;20.50;;;18.53;;
24419;SDS011;12599;52.426;13.330;2022-08-19T09:23:15;20.63;;;18.70;;
24419;SDS011;12599;52.426;13.330;2022-08-19T09:25:41;21.43;;;19.13;;
24419;SDS011;12599;52.426;13.330;2022-08-19T09:28:07;20.03;;;17.57;;
24419;SDS011;12599;52.426;13.330;2022-08-19T09:30:34;20.50;;;18.50;;
24419;SDS011;12599;52.426;13.330;2022-08-19T09:33:04;20.03;;;18.00;;
24419;SDS011;12599;52.426;13.330;2022-08-19T09:35:30;19.40;;;17.17;;
24419;SDS011;12599;52.426;13.330;2022-08-19T09:37:57;20.00;;;18.00;;
24419;SDS011;12599;52.426;13.330;2022-08-19T09:40:23;19.17;;;17.27;;
24419;SDS011;12599;52.426;13.330;2022-08-19T09:42:50;19.90;;;17.90;;
24419;SDS011;12599;52.426;13.330;2022-08-19T09:45:17;19.67;;;17.67;;
24419;SDS011;12599;52.426;13.330;2022-08-19T09:47:45;17.57;;;15.87;;
24419;SDS011;12599;52.426;13.330;2022-08-19T09:50:11;17.83;;;16.03;;
24419;SDS011;12599;52.426;13.330;2022-08-19T09:52:38;20.67;;;17.07;;
24419;SDS011;12599;52.426;13.330;2022-08-19T09:55:04;18.93;;;16.03;;
24419;SDS011;12599;52.426;13.330;2022-08-19T09:57:32;17.73;;;15.93;;
24419;SDS011;12599;52.426;13.330;2022-08-19T09:59:58;17.23;;;15.03;;
24419;SDS011;12599;52.426;13.330;2022-08-19T10:02:23;18.03;;;16.13;;
24419;SDS011;12599;52.426;13.330;2022-08-19T10:04:49;17.90;;;15.80;;
24419;SDS011;12599;52.426;13.330;2022-08-19T10:07:34;15.63;;;14.13;;
24419;SDS011;12599;52.426;13.330;2022-08-19T10:10:00;16.30;;;14.67;;
24419;SDS011;12599;52.426;13.330;2022-08-19T10:12:25;17.27;;;15.57;;
24419;SDS011;12599;52.426;13.330;2022-08-19T10:14:51;18.07;;;16.17;;
24419;SDS011;12599;52.426;13.330;2022-08-19T10:17:18;18.10;;;16.30;;
24419;SDS011;12599;52.426;13.330;2022-08-19T10:19:44;17.60;;;15.87;;
24419;SDS011;12599;52.426;13.330;2022-08-19T10:22:10;17.00;;;15.20;;
24419;SDS011;12599;52.426;13.330;2022-08-19T10:24:38;16.70;;;15.00;;
24419;SDS011;12599;52.426;13.330;2022-08-19T10:27:04;16.73;;;14.97;;
24419;SDS011;12599;52.426;13.330;2022-08-19T10:29:31;16.97;;;15.17;;
24419;SDS011;12599;52.426;13.330;2022-08-19T10:32:03;16.37;;;14.67;;
24419;SDS011;12599;52.426;13.330;2022-08-19T10:34:32;17.17;;;15.47;;
24419;SDS011;12599;52.426;13.330;2022-08-19T10:36:58;16.40;;;14.70;;
24419;SDS011;12599;52.426;13.330;2022-08-19T10:39:25;18.83;;;16.10;;
24419;SDS011;12599;52.426;13.330;2022-08-19T10:41:54;17.33;;;15.50;;
24419;SDS011;12599;52.426;13.330;2022-08-19T10:44:21;17.57;;;15.77;;
24419;SDS011;12599;52.426;13.330;2022-08-19T10:46:48;16.50;;;14.80;;
24419;SDS011;12599;52.426;13.330;2022-08-19T10:49:13;17.83;;;14.57;;
24419;SDS011;12599;52.426;13.330;2022-08-19T10:51:40;17.03;;;15.33;;
24419;SDS011;12599;52.426;13.330;2022-08-19T10:54:24;17.60;;;15.80;;
24419;SDS011;12599;52.426;13.330;2022-08-19T10:57:10;17.00;;;15.20;;
24419;SDS011;12599;52.426;13.330;2022-08-19T10:59:36;17.13;;;15.37;;
24419;SDS011;12599;52.426;13.330;2022-08-19T11:02:04;15.63;;;14.03;;
24419;SDS011;12599;52.426;13.330;2022-08-19T11:04:32;16.33;;;13.83;;
24419;SDS011;12599;52.426;13.330;2022-08-19T11:06:58;15.80;;;14.10;;
24419;SDS011;12599;52.426;13.330;2022-08-19T11:09:24;15.53;;;13.93;;
24419;SDS011;12599;52.426;13.330;2022-08-19T11:11:51;15.60;;;14.00;;
24419;SDS011;12599;52.426;13.330;2022-08-19T11:14:18;16.17;;;14.47;;
24419;SDS011;12599;52.426;13.330;2022-08-19T11:16:46;15.67;;;13.97;;
24419;SDS011;12599;52.426;13.330;2022-08-19T11:19:13;16.87;;;14.23;;
24419;SDS011;12599;52.426;13.330;2022-08-19T11:21:42;16.60;;;14.97;;
24419;SDS011;12599;52.426;13.330;2022-08-19T11:24:19;14.77;;;13.27;;
24419;SDS011;12599;52.426;13.330;2022-08-19T11:26:47;15.57;;;13.57;;
24419;SDS011;12599;52.426;13.330;2022-08-19T11:29:14;15.63;;;13.93;;
24419;SDS011;12599;52.426;13.330;2022-08-19T11:31:42;17.30;;;13.87;;
24419;SDS011;12599;52.426;13.330;2022-08-19T11:34:10;14.07;;;12.67;;
24419;SDS011;12599;52.426;13.330;2022-08-19T11:36:38;16.50;;;14.70;;
24419;SDS011;12599;52.426;13.330;2022-08-19T11:39:07;15.37;;;13.70;;
24419;SDS011;12599;52.426;13.330;2022-08-19T11:41:35;14.87;;;13.33;;
24419;SDS011;12599;52.426;13.330;2022-08-19T11:44:01;14.50;;;13.00;;
24419;SDS011;12599;52.426;13.330;2022-08-19T11:46:29;14.93;;;13.33;;
24419;SDS011;12599;52.426;13.330;2022-08-19T11:48:58;14.13;;;12.63;;
24419;SDS011;12599;52.426;13.330;2022-08-19T11:51:25;14.47;;;12.77;;
24419;SDS011;12599;52.426;13.330;2022-08-19T11:53:52;22.40;;;20.03;;
24419;SDS011;12599;52.426;13.330;2022-08-19T11:56:20;14.40;;;12.90;;
24419;SDS011;12599;52.426;13.330;2022-08-19T11:58:46;14.67;;;13.17;;
24419;SDS011;12599;52.426;13.330;2022-08-19T12:01:13;13.00;;;11.57;;
24419;SDS011;12599;52.426;13.330;2022-08-19T12:03:42;15.03;;;12.17;;
24419;SDS011;12599;52.426;13.330;2022-08-19T12:06:12;13.77;;;12.37;;
24419;SDS011;12599;52.426;13.330;2022-08-19T12:08:40;15.80;;;12.80;;
24419;SDS011;12599;52.426;13.330;2022-08-19T12:11:07;14.50;;;12.10;;
24419;SDS011;12599;52.426;13.330;2022-08-19T12:13:34;13.17;;;11.77;;
24419;SDS011;12599;52.426;13.330;2022-08-19T12:16:06;14.50;;;11.13;;
24419;SDS011;12599;52.426;13.330;2022-08-19T12:18:35;12.57;;;11.27;;
24419;SDS011;12599;52.426;13.330;2022-08-19T12:21:01;12.23;;;10.93;;
24419;SDS011;12599;52.426;13.330;2022-08-19T12:23:26;12.10;;;10.80;;
24419;SDS011;12599;52.426;13.330;2022-08-19T12:25:52;11.73;;;10.20;;
24419;SDS011;12599;52.426;13.330;2022-08-19T12:28:19;13.00;;;10.93;;
24419;SDS011;12599;52.426;13.330;2022-08-19T12:30:46;12.10;;;10.50;;
24419;SDS011;12599;52.426;13.330;2022-08-19T12:33:13;12.80;;;10.47;;
24419;SDS011;12599;52.426;13.330;2022-08-19T12:35:40;10.47;;;9.37;;
24419;SDS011;12599;52.426;13.330;2022-08-19T12:38:06;10.67;;;9.33;;
24419;SDS011;12599;52.426;13.330;2022-08-19T12:40:32;11.50;;;9.60;;
24419;SDS011;12599;52.426;13.330;2022-08-19T12:42:58;10.53;;;9.40;;
24419;SDS011;12599;52.426;13.330;2022-08-19T12:45:24;11.07;;;9.60;;
24419;SDS011;12599;52.426;13.330;2022-08-19T12:47:49;11.73;;;10.13;;
24419;SDS011;12599;52.426;13.330;2022-08-19T12:50:17;11.50;;;10.30;;
24419;SDS011;12599;52.426;13.330;2022-08-19T12:52:43;13.23;;;10.03;;
24419;SDS011;12599;52.426;13.330;2022-08-19T12:55:09;11.77;;;9.73;;
24419;SDS011;12599;52.426;13.330;2022-08-19T12:57:36;10.70;;;9.23;;
24419;SDS011;12599;52.426;13.330;2022-08-19T13:00:10;10.73;;;8.83;;
24419;SDS011;12599;52.426;13.330;2022-08-19T13:02:39;10.00;;;8.53;;
24419;SDS011;12599;52.426;13.330;2022-08-19T13:05:07;10.53;;;9.23;;
24419;SDS011;12599;52.426;13.330;2022-08-19T13:07:34;10.10;;;9.10;;
24419;SDS011;12599;52.426;13.330;2022-08-19T13:10:02;10.00;;;8.90;;
24419;SDS011;12599;52.426;13.330;2022-08-19T13:12:28;11.70;;;8.13;;
24419;SDS011;12599;52.426;13.330;2022-08-19T13:14:54;11.17;;;8.97;;
24419;SDS011;12599;52.426;13.330;2022-08-19T13:17:20;10.73;;;9.63;;
24419;SDS011;12599;52.426;13.330;2022-08-19T13:19:46;9.03;;;8.17;;
24419;SDS011;12599;52.426;13.330;2022-08-19T13:22:11;11.33;;;8.83;;
24419;SDS011;12599;52.426;13.330;2022-08-19T13:24:37;10.83;;;9.43;;
24419;SDS011;12599;52.426;13.330;2022-08-19T13:27:03;10.57;;;9.33;;
24419;SDS011;12599;52.426;13.330;2022-08-19T13:29:29;10.57;;;9.47;;
24419;SDS011;12599;52.426;13.330;2022-08-19T13:32:14;12.23;;;8.80;;
24419;SDS011;12599;52.426;13.330;2022-08-19T13:34:58;11.03;;;8.73;;
24419;SDS011;12599;52.426;13.330;2022-08-19T13:37:24;11.43;;;8.87;;
24419;SDS011;12599;52.426;13.330;2022-08-19T13:40:09;10.73;;;9.63;;
24419;SDS011;12599;52.426;13.330;2022-08-19T13:42:43;12.80;;;10.10;;
24419;SDS011;12599;52.426;13.330;2022-08-19T13:45:13;11.43;;;10.20;;
24419;SDS011;12599;52.426;13.330;2022-08-19T13:47:40;11.03;;;9.93;;
24419;SDS011;12599;52.426;13.330;2022-08-19T13:50:09;10.77;;;9.67;;
24419;SDS011;12599;52.426;13.330;2022-08-19T13:52:37;10.50;;;9.40;;
24419;SDS011;12599;52.426;13.330;2022-08-19T13:55:03;11.87;;;9.63;;
24419;SDS011;12599;52.426;13.330;2022-08-19T13:57:30;10.57;;;9.37;;
24419;SDS011;12599;52.426;13.330;2022-08-19T13:59:57;11.43;;;9.37;;
24419;SDS011;12599;52.426;13.330;2022-08-19T14:02:23;11.43;;;9.60;;
24419;SDS011;12599;52.426;13.330;2022-08-19T14:04:49;11.37;;;9.10;;
24419;SDS011;12599;52.426;13.330;2022-08-19T14:07:14;11.13;;;9.80;;
24419;SDS011;12599;52.426;13.330;2022-08-19T14:09:40;14.00;;;12.50;;
24419;SDS011;12599;52.426;13.330;2022-08-19T14:12:06;13.97;;;11.73;;
24419;SDS011;12599;52.426;13.330;2022-08-19T14:14:35;14.07;;;12.67;;
24419;SDS011;12599;52.426;13.330;2022-08-19T14:17:05;14.50;;;13.00;;
24419;SDS011;12599;52.426;13.330;2022-08-19T14:19:31;13.43;;;11.93;;
24419;SDS011;12599;52.426;13.330;2022-08-19T14:21:57;13.00;;;11.60;;
24419;SDS011;12599;52.426;13.330;2022-08-19T14:24:23;11.73;;;10.40;;
24419;SDS011;12599;52.426;13.330;2022-08-19T14:26:48;11.17;;;9.97;;
24419;SDS011;12599;52.426;13.330;2022-08-19T14:29:14;11.53;;;10.23;;
24419;SDS011;12599;52.426;13.330;2022-08-19T14:31:39;11.27;;;10.07;;